Latest Weather Observations for Centre Island

IDD60801

Issued at 2:01 pm CST Sunday 19 April 2015 (issued every 30 minutes, with the page automatically refreshed every 10 minutes)

About weather observations | Map of weather stations | Latest weather observations for NT | Other Formats
Station Details ID: 014703 Name: CENTRE ISLAND Lat: -15.74 Lon: 136.82 Height: 12.2 m
Data from the previous 72 hours. | See also: Recent months at Centre Island
Date/Time
CST
Temp
°C
App
Temp
°C
Dew
Point
Rel
Hum
%
Delta-T
°C
Wind Press
QNH
hPa
Press
MSL
hPa
Rain
since 9 am
mm
Dir
 
Spd
km/h
Gust
km/h
Spd
kts
Gust
kts
19/02:00pm 31.4 27.9 21.8 56 6.5 ESE 43 54 23 29 1011.5 1011.4 0.0
19/01:30pm 31.6 27.2 21.2 54 7.0 ESE 46 57 25 31 1011.9 1011.8 0.0
19/01:00pm 31.8 27.4 21.3 53 7.1 ESE 46 54 25 29 1012.3 1012.2 0.0
19/12:30pm 31.6 27.7 21.2 54 7.0 E 43 52 23 28 1012.7 1012.6 0.0
19/12:00pm 31.6 26.9 21.4 54 6.9 ESE 48 59 26 32 1013.0 1012.9 0.0
19/11:30am 31.5 27.4 20.8 53 7.1 ESE 43 48 23 26 1013.6 1013.5 0.0
19/11:00am 31.4 28.8 20.7 53 7.1 ESE 35 43 19 23 1014.2 1014.1 0.0
19/10:30am 30.9 27.8 19.6 51 7.4 SE 35 41 19 22 1014.5 1014.4 0.0
19/10:00am 30.2 26.5 19.2 51 7.2 SE 37 43 20 23 1014.6 1014.5 0.0
19/09:30am 29.5 27.7 20.4 58 6.0 SE 30 35 16 19 1014.8 1014.7 0.0
19/09:00am 28.5 26.6 20.2 60 5.4 SE 30 35 16 19 1014.7 1014.6 0.0
19/08:30am 27.6 25.5 19.7 62 5.1 SSE 30 33 16 18 1014.3 1014.2 0.0
19/08:00am 27.1 24.2 19.2 62 5.1 SSE 33 41 18 22 1014.1 1014.0 0.0
19/07:30am 26.5 23.8 19.6 66 4.5 SSE 33 41 18 22 1014.1 1014.0 0.0
19/07:00am 26.5 24.3 19.6 66 4.5 SSE 30 37 16 20 1013.4 1013.3 0.0
19/06:30am 26.6 24.1 19.7 66 4.5 S 32 37 17 20 1013.1 1013.0 0.0
19/06:00am 26.8 24.7 19.7 65 4.6 S 30 39 16 21 1012.6 1012.5 0.0
19/05:30am 27.1 25.6 20.2 66 4.5 S 28 35 15 19 1012.1 1012.0 0.0
19/05:00am 27.5 26.9 21.3 69 4.1 S 26 32 14 17 1011.9 1011.8 0.0
19/04:30am 27.8 26.8 21.3 67 4.3 S 28 32 15 17 1011.7 1011.6 0.0
19/04:00am 27.5 29.5 23.9 81 2.5 S 20 26 11 14 1011.5 1011.4 0.0
19/03:30am 27.3 27.8 24.0 82 2.3 S 28 35 15 19 1011.4 1011.3 0.0
19/03:00am 27.2 27.8 24.1 83 2.1 S 28 35 15 19 1011.4 1011.3 0.0
19/02:30am 27.1 29.1 24.6 86 1.7 SSW 22 28 12 15 1011.3 1011.2 0.0
19/02:00am 27.0 31.3 24.3 85 1.9 S 9 11 5 6 1011.5 1011.4 0.0
19/01:30am 26.7 31.6 23.6 83 2.1 NE 4 6 2 3 1011.6 1011.5 0.0
19/01:00am 27.1 31.7 23.8 82 2.3 ENE 6 7 3 4 1012.0 1011.9 0.0
19/12:30am 27.6 31.7 24.0 81 2.5 ENE 9 11 5 6 1012.3 1012.2 0.0
19/12:00am 27.7 31.5 24.1 81 2.5 ENE 11 13 6 7 1012.5 1012.4 0.0
 
Date/Time
CST
Temp
°C
App
Temp
°C
Dew
Point
Rel
Hum
%
Delta-T
°C
Wind Press
QNH
hPa
Press
MSL
hPa
Rain
since 9 am
mm
Dir
 
Spd
km/h
Gust
km/h
Spd
kts
Gust
kts
18/11:30pm 27.9 32.2 24.3 81 2.5 ENE 9 11 5 6 1012.8 1012.7 0.0
18/11:00pm 28.1 32.3 24.1 79 2.8 NE 9 11 5 6 1012.8 1012.7 0.0
18/10:30pm 28.3 32.4 24.5 80 2.6 NNE 11 15 6 8 1012.8 1012.7 0.0
18/10:00pm 28.2 32.1 24.2 79 2.8 NE 11 17 6 9 1012.7 1012.6 0.0
18/09:30pm 28.4 31.5 24.2 78 2.9 NE 15 19 8 10 1012.6 1012.5 0.0
18/09:00pm 28.4 31.0 24.0 77 3.0 NE 17 20 9 11 1012.6 1012.5 0.0
18/08:30pm 28.4 30.7 23.5 75 3.4 ENE 17 22 9 12 1012.3 1012.2 0.0
18/08:00pm 28.6 30.9 23.5 74 3.5 NE 17 20 9 11 1012.1 1012.0 0.0
18/07:30pm 28.8 31.6 23.7 74 3.5 NE 15 19 8 10 1011.7 1011.6 0.0
18/07:00pm 29.0 31.4 23.0 70 4.1 NE 15 17 8 9 1011.4 1011.3 0.0
18/06:30pm 29.5 31.7 23.2 69 4.3 ENE 17 22 9 12 1011.3 1011.2 0.0
18/06:00pm 29.9 32.5 23.3 67 4.5 NNE 15 22 8 12 1011.2 1011.1 0.0
18/05:30pm 30.4 32.9 23.1 65 5.0 NNE 15 20 8 11 1010.9 1010.8 0.0
18/05:00pm 31.2 34.0 23.0 61 5.6 NNE 13 17 7 9 1010.9 1010.8 0.0
18/04:30pm 31.6 34.5 23.2 61 5.8 NNE 13 17 7 9 1010.6 1010.5 0.0
18/04:00pm 32.3 34.3 23.0 58 6.4 NNE 17 20 9 11 1010.4 1010.3 0.0
18/03:30pm 32.2 33.8 22.9 58 6.4 NNE 19 24 10 13 1010.4 1010.3 0.0
18/03:00pm 32.3 33.8 23.0 58 6.4 NNE 20 28 11 15 1010.6 1010.5 0.0
18/02:30pm 32.3 33.4 23.0 58 6.4 NNE 22 30 12 16 1010.9 1010.8 0.0
18/02:00pm 32.7 34.1 22.8 56 6.8 NNE 20 26 11 14 1011.2 1011.1 0.0
18/01:30pm 32.8 33.9 22.3 54 7.2 NE 20 28 11 15 1011.4 1011.3 0.0
18/01:00pm 33.6 35.5 22.7 53 7.5 NNE 17 24 9 13 1011.7 1011.6 0.0
18/12:30pm 32.7 34.5 22.5 55 7.0 NE 17 24 9 13 1012.0 1011.9 0.0
18/12:00pm 31.9 35.3 23.4 60 5.9 NE 11 15 6 8 1012.5 1012.4 0.0
18/11:30am 31.0 34.5 22.9 62 5.6 ENE 9 11 5 6 1013.0 1012.9 0.0
18/11:00am 30.1 33.9 23.5 67 4.6 SE 9 11 5 6 1013.4 1013.3 0.0
18/10:30am 29.4 33.3 23.6 71 4.0 SE 9 11 5 6 1013.8 1013.7 0.0
18/10:00am 29.5 33.7 23.4 69 4.2 ESE 7 9 4 5 1013.9 1013.8 0.0
18/09:30am 29.1 32.8 23.3 71 4.0 SE 9 11 5 6 1014.0 1013.9 0.0
18/09:00am 28.6 32.3 23.3 73 3.6 SE 9 11 5 6 1013.9 1013.8 0.0
18/08:30am 28.5 32.3 23.4 74 3.5 SSE 9 11 5 6 1013.6 1013.5 0.0
18/08:00am 28.4 32.4 23.8 76 3.2 SE 9 11 5 6 1013.3 1013.2 0.0
18/07:30am 27.8 31.8 23.8 79 2.8 SE 9 11 5 6 1013.2 1013.1 0.0
18/07:00am 26.9 31.2 24.2 85 1.9 SE 9 11 5 6 1012.6 1012.5 0.0
18/06:30am 25.8 29.8 22.1 80 2.5 ENE 4 7 2 4 1012.0 1011.9 0.0
18/06:00am 26.3 29.5 21.7 76 3.1 E 7 9 4 5 1011.6 1011.5 0.0
18/05:30am 26.7 29.7 21.9 75 3.2 ENE 9 11 5 6 1011.2 1011.1 0.0
18/05:00am 26.8 29.4 22.0 75 3.2 E 11 13 6 7 1011.0 1010.9 0.0
18/04:30am 27.0 29.7 22.2 75 3.2 E 11 13 6 7 1010.9 1010.8 0.0
18/04:00am 27.2 29.7 22.4 75 3.2 ENE 13 15 7 8 1010.9 1010.8 0.0
18/03:30am 27.4 29.8 22.3 73 3.4 ENE 13 17 7 9 1011.0 1010.9 0.0
18/03:00am 27.5 29.8 22.7 75 3.3 ENE 15 19 8 10 1011.2 1011.1 0.0
18/02:30am 27.5 29.4 22.7 75 3.3 NE 17 20 9 11 1011.2 1011.1 0.0
18/02:00am 27.4 29.7 22.8 76 3.1 ENE 15 20 8 11 1011.3 1011.2 0.0
18/01:30am 27.5 29.8 22.7 75 3.3 ENE 15 17 8 9 1011.7 1011.6 0.0
18/01:00am 27.6 29.5 22.8 75 3.3 ENE 17 20 9 11 1011.9 1011.8 0.0
18/12:30am 27.6 29.9 22.8 75 3.3 ENE 15 19 8 10 1012.4 1012.3 0.0
18/12:00am 27.7 30.1 22.9 75 3.3 ENE 15 19 8 10 1012.7 1012.6 0.0
 
Date/Time
CST
Temp
°C
App
Temp
°C
Dew
Point
Rel
Hum
%
Delta-T
°C
Wind Press
QNH
hPa
Press
MSL
hPa
Rain
since 9 am
mm
Dir
 
Spd
km/h
Gust
km/h
Spd
kts
Gust
kts
17/11:30pm 27.8 29.8 23.0 75 3.3 ENE 17 20 9 11 1012.8 1012.7 0.0
17/11:00pm 27.9 30.0 23.1 75 3.3 ENE 17 20 9 11 1012.9 1012.8 0.0
17/10:30pm 28.0 30.0 22.9 74 3.5 ENE 17 20 9 11 1012.8 1012.7 0.0
17/10:00pm 28.0 29.9 22.7 73 3.6 NE 17 20 9 11 1012.9 1012.8 0.0
17/09:30pm 28.0 29.9 22.7 73 3.6 ENE 17 19 9 10 1012.9 1012.8 0.0
17/09:00pm 28.2 30.1 22.7 72 3.7 ENE 17 20 9 11 1012.7 1012.6 0.0
17/08:30pm 28.3 29.7 22.5 71 3.9 ENE 19 20 10 11 1012.5 1012.4 0.0
17/08:00pm 28.4 29.7 22.4 70 4.1 ENE 19 24 10 13 1012.2 1012.1 0.0
17/07:30pm 28.5 29.8 22.3 69 4.2 ENE 19 22 10 12 1011.9 1011.8 0.0
17/07:00pm 28.6 29.7 22.3 68 4.3 ENE 20 24 11 13 1011.4 1011.3 0.0
17/06:30pm 28.9 30.2 22.6 69 4.3 ENE 20 24 11 13 1011.2 1011.1 0.0
17/06:00pm 29.3 30.5 22.5 67 4.6 ENE 20 24 11 13 1010.9 1010.8 0.0
17/05:30pm 29.9 31.0 22.3 63 5.2 ENE 20 26 11 14 1010.7 1010.6 0.0
17/05:00pm 30.4 32.2 23.6 67 4.7 NE 20 24 11 13 1010.6 1010.5 0.0
17/04:30pm 30.8 32.4 23.2 64 5.2 NE 20 26 11 14 1010.6 1010.5 0.0
17/04:00pm 31.1 32.6 23.0 62 5.6 NE 20 28 11 15 1010.5 1010.4 0.0
17/03:30pm 31.5 32.9 22.8 60 6.0 NE 20 30 11 16 1010.5 1010.4 0.0
17/03:00pm 31.8 32.7 23.3 60 5.9 NE 24 30 13 16 1010.7 1010.6 0.0
17/02:30pm 31.7 33.3 23.2 60 5.9 NE 20 30 11 16 1010.8 1010.7 0.0
17/02:00pm 31.1 33.1 24.0 66 4.9 NNE 20 30 11 16 1011.2 1011.1 0.0
17/01:30pm 31.8 33.5 24.7 66 5.0 NE 24 33 13 18 1011.5 1011.4 0.0
17/01:00pm 32.4 34.0 23.9 61 5.9 NE 22 30 12 16 1011.9 1011.8 0.0
17/12:30pm 31.5 32.7 23.9 64 5.3 NE 24 32 13 17 1012.4 1012.3 0.0
17/12:00pm 31.4 34.5 24.8 68 4.6 NNE 17 24 9 13 1012.8 1012.7 0.0
17/11:30am 30.1 33.5 24.0 70 4.2 NE 13 24 7 13 1013.2 1013.1 0.0
17/11:00am 29.2 29.5 22.2 66 4.7 ENE 24 37 13 20 1013.7 1013.6 0.0
17/10:59am 29.3 29.8 22.0 64 4.9 ENE 22 37 12 20 1013.7 1013.6 0.0
17/10:30am 30.2 34.7 24.6 72 3.9 SSE 9 11 5 6 1013.9 1013.8 0.0
17/10:00am 28.7 32.8 24.0 76 3.3 SE 9 13 5 7 1014.1 1014.0 0.0
17/09:30am 29.2 33.8 24.1 74 3.5 E 7 9 4 5 1014.0 1013.9 0.0
17/09:00am 29.1 33.4 24.2 75 3.4 ESE 9 11 5 6 1014.0 1013.9 3.2
17/08:30am 28.1 32.2 23.2 74 3.3 SSE 7 11 4 6 1013.7 1013.6 3.2
17/08:00am 28.1 32.1 23.7 77 3.0 S 9 11 5 6 1013.4 1013.3 3.2
17/07:30am 27.9 32.5 24.1 80 2.6 SE 7 9 4 5 1013.1 1013.0 3.2
17/07:00am 26.8 30.5 23.9 84 2.0 SE 11 13 6 7 1012.8 1012.7 3.2
17/06:30am 26.3 29.7 23.4 84 2.0 ESE 11 13 6 7 1012.4 1012.3 3.2
17/06:00am 26.5 29.9 23.4 83 2.1 ESE 11 13 6 7 1012.2 1012.1 3.2
17/05:30am 26.6 29.7 23.5 83 2.1 ESE 13 15 7 8 1012.0 1011.9 3.2
17/05:00am 26.6 29.6 23.3 82 2.3 ESE 13 17 7 9 1011.8 1011.7 3.2
17/04:30am 26.7 29.7 23.4 82 2.3 SE 13 15 7 8 1011.8 1011.7 3.2
17/04:00am 27.0 30.0 23.3 80 2.5 SE 13 17 7 9 1012.0 1011.9 3.2
17/03:30am 27.4 29.7 22.1 73 3.6 E 13 17 7 9 1012.1 1012.0 3.2
17/03:00am 27.4 29.0 22.1 73 3.6 E 17 19 9 10 1012.1 1012.0 3.2
17/02:30am 27.3 29.7 22.3 74 3.4 ESE 13 15 7 8 1012.6 1012.5 3.2
17/02:00am 27.2 29.8 21.9 73 3.6 E 11 13 6 7 1013.0 1012.9 3.2
17/01:30am 27.2 29.4 21.9 73 3.6 E 13 13 7 7 1013.3 1013.2 3.2
17/01:00am 27.3 29.6 22.0 73 3.6 ENE 13 15 7 8 1013.9 1013.8 3.2
17/12:30am 27.5 30.0 22.4 73 3.4 ENE 13 17 7 9 1014.5 1014.4 3.2
17/12:00am 27.5 30.2 22.9 76 3.1 ENE 13 17 7 9 1014.9 1014.8 3.2
 
Date/Time
CST
Temp
°C
App
Temp
°C
Dew
Point
Rel
Hum
%
Delta-T
°C
Wind Press
QNH
hPa
Press
MSL
hPa
Rain
since 9 am
mm
Dir
 
Spd
km/h
Gust
km/h
Spd
kts
Gust
kts
16/11:30pm 27.6 30.0 23.0 76 3.1 ENE 15 19 8 10 1015.1 1015.0 3.2
16/11:00pm 27.6 30.5 23.2 77 3.0 ENE 13 17 7 9 1015.2 1015.1 3.2
16/10:30pm 27.8 29.8 23.0 75 3.3 E 17 20 9 11 1015.3 1015.2 3.2
16/10:00pm 27.8 30.7 23.2 76 3.1 ENE 13 17 7 9 1015.3 1015.2 3.2
16/09:30pm 28.1 30.3 23.2 74 3.3 E 17 22 9 12 1015.4 1015.3 3.2
16/09:00pm 28.2 29.9 23.1 74 3.5 E 19 22 10 12 1015.5 1015.4 3.2
16/08:30pm 28.2 30.2 22.9 73 3.6 ENE 17 20 9 11 1015.2 1015.1 3.2
16/08:00pm 28.4 30.4 22.9 72 3.7 ENE 17 20 9 11 1014.7 1014.6 3.2
16/07:30pm 28.4 29.8 22.6 71 3.9 ENE 19 20 10 11 1014.3 1014.2 3.2
16/07:00pm 28.5 30.0 23.0 72 3.8 ENE 20 24 11 13 1013.9 1013.8 3.2
16/06:30pm 28.8 30.2 23.5 73 3.6 ENE 22 26 12 14 1013.5 1013.4 3.2
16/06:00pm 28.9 29.4 22.6 69 4.3 E 24 28 13 15 1013.2 1013.1 3.2
16/05:30pm 29.8 30.8 23.5 69 4.3 E 24 30 13 16 1013.1 1013.0 3.2
16/05:00pm 30.2 31.1 23.4 67 4.7 E 24 32 13 17 1012.9 1012.8 3.2
16/04:30pm 30.7 31.2 22.6 62 5.5 E 24 30 13 16 1012.8 1012.7 3.2
16/04:00pm 31.0 31.7 22.9 62 5.6 E 24 30 13 16 1012.7 1012.6 3.2
16/03:30pm 31.1 31.1 23.0 62 5.6 ENE 28 37 15 20 1012.7 1012.6 3.2
16/03:00pm 31.3 31.5 23.4 63 5.5 E 28 35 15 19 1012.8 1012.7 3.2
16/02:30pm 29.9 30.7 23.1 67 4.7 E 24 32 13 17 1013.2 1013.1 3.2

Other Formats:

Comma delimited format used in spreadsheet applications
http://www.bom.gov.au/fwo/IDD60801/IDD60801.94248.axf

JavaScript Object Notation format (JSON) in row-major order
http://www.bom.gov.au/fwo/IDD60801/IDD60801.94248.json